createdAt,value
2023-05-09T00:02:09.357Z,46.51
2023-05-09T00:05:10.911Z,47.38
2023-05-09T00:08:13.152Z,46.68
2023-05-09T00:11:15.099Z,46.67
2023-05-09T00:14:17.667Z,46.53
2023-05-09T00:17:18.968Z,46.65
2023-05-09T00:20:21.116Z,46.93
2023-05-09T00:23:22.435Z,47.52
2023-05-09T00:26:24.468Z,47.60
2023-05-09T00:29:25.750Z,47.04
2023-05-09T00:32:28.490Z,47.54
2023-05-09T00:35:31.522Z,47.11
2023-05-09T00:38:33.026Z,47.79
2023-05-09T00:41:35.111Z,48.03
2023-05-09T00:44:36.539Z,48.15
2023-05-09T00:47:38.315Z,47.97
2023-05-09T00:50:40.086Z,47.24
2023-05-09T00:53:41.541Z,47.17
2023-05-09T00:56:43.957Z,47.25
2023-05-09T00:59:45.393Z,47.48
2023-05-09T01:02:50.558Z,47.00
2023-05-09T01:05:57.564Z,47.36
2023-05-09T01:09:06.712Z,47.75
2023-05-09T01:12:16.383Z,47.73
2023-05-09T01:15:24.468Z,47.71
2023-05-09T01:18:31.433Z,47.46
2023-05-09T01:21:34.884Z,46.85
2023-05-09T01:25:09.766Z,47.19
2023-05-09T01:28:16.468Z,47.49
2023-05-09T01:31:20.034Z,47.09
2023-05-09T01:34:24.991Z,46.75
2023-05-09T01:37:31.022Z,46.83
2023-05-09T01:40:34.209Z,46.30
2023-05-09T01:43:37.936Z,46.68
2023-05-09T01:46:44.164Z,46.64
2023-05-09T01:49:47.571Z,46.97
2023-05-09T01:52:53.176Z,46.57
2023-05-09T01:55:56.579Z,46.82
2023-05-09T01:59:00.851Z,46.60
2023-05-09T02:02:04.346Z,46.95
2023-05-09T02:05:08.848Z,47.42
2023-05-09T02:08:11.579Z,46.38
2023-05-09T02:11:13.426Z,46.71
2023-05-09T02:14:15.762Z,45.57
2023-05-09T02:17:18.508Z,45.98
2023-05-09T02:20:20.575Z,46.15
2023-05-09T02:23:22.350Z,46.68
2023-05-09T02:26:25.205Z,46.13
2023-05-09T02:29:37.910Z,45.54
2023-05-09T02:32:42.666Z,45.42
2023-05-09T02:35:50.719Z,45.96
2023-05-09T02:38:52.844Z,45.23
2023-05-09T02:41:54.294Z,45.68
2023-05-09T02:44:56.231Z,46.13
2023-05-09T02:47:58.539Z,45.99
2023-05-09T02:50:59.972Z,45.17
2023-05-09T02:54:01.622Z,45.78
2023-05-09T02:57:03.308Z,45.53
2023-05-09T03:00:08.837Z,45.29
2023-05-09T03:03:11.260Z,44.65
2023-05-09T03:06:13.625Z,45.37
2023-05-09T03:09:15.144Z,45.08
2023-05-09T03:12:16.864Z,45.23
2023-05-09T03:15:18.718Z,45.16
2023-05-09T03:18:20.823Z,45.06
2023-05-09T03:21:22.706Z,44.46
2023-05-09T03:24:27.501Z,44.95
2023-05-09T03:27:29.412Z,45.55
2023-05-09T03:30:31.000Z,45.32
2023-05-09T03:33:33.712Z,45.71
2023-05-09T03:36:35.200Z,45.37
2023-05-09T03:39:36.828Z,45.17
2023-05-09T03:42:38.500Z,45.07
2023-05-09T03:45:40.097Z,45.30
2023-05-09T03:48:42.385Z,45.59
2023-05-09T03:51:44.118Z,45.59
2023-05-09T03:54:48.721Z,45.54
2023-05-09T03:57:50.205Z,45.99
2023-05-09T04:00:51.960Z,45.67
2023-05-09T04:03:54.349Z,45.93
2023-05-09T04:06:56.416Z,46.17
2023-05-09T04:09:58.073Z,46.13
2023-05-09T04:12:59.843Z,45.85
2023-05-09T04:16:01.559Z,45.91
2023-05-09T04:19:04.145Z,46.24
2023-05-09T04:22:05.522Z,46.43
2023-05-09T04:25:11.656Z,46.08
2023-05-09T04:28:13.239Z,46.28
2023-05-09T04:31:15.049Z,45.60
2023-05-09T04:34:17.471Z,44.69
2023-05-09T04:37:19.702Z,44.27
2023-05-09T04:40:21.235Z,44.47
2023-05-09T04:43:25.708Z,43.93
2023-05-09T04:46:27.117Z,43.84
2023-05-09T04:49:29.380Z,43.72
2023-05-09T04:52:30.977Z,42.23
2023-05-09T04:55:32.465Z,42.92
2023-05-09T04:58:37.698Z,41.37
2023-05-09T05:01:39.101Z,41.33
2023-05-09T05:04:41.614Z,40.83
2023-05-09T05:07:43.268Z,41.16
2023-05-09T05:10:44.724Z,41.96
2023-05-09T05:13:46.391Z,39.77
2023-05-09T05:16:47.972Z,39.42
2023-05-09T05:19:50.216Z,40.08
2023-05-09T05:22:53.894Z,39.67
2023-05-09T05:25:55.411Z,39.19
2023-05-09T05:28:56.970Z,39.29
2023-05-09T05:31:58.530Z,38.63
2023-05-09T05:35:01.976Z,37.71
2023-05-09T05:38:03.543Z,37.92
2023-05-09T05:41:05.632Z,38.69
2023-05-09T05:44:09.664Z,38.66
2023-05-09T05:47:11.023Z,37.51
2023-05-09T05:50:13.618Z,37.59
2023-05-09T05:53:15.319Z,36.45
2023-05-09T05:56:16.905Z,35.85
2023-05-09T05:59:18.346Z,35.90
2023-05-09T06:02:19.873Z,35.73
2023-05-09T06:05:22.000Z,35.56
2023-05-09T06:08:23.603Z,34.97
2023-05-09T06:11:25.076Z,34.91
2023-05-09T06:14:26.939Z,34.87
2023-05-09T06:17:28.740Z,33.94
2023-05-09T06:20:30.854Z,33.00
2023-05-09T06:23:32.519Z,33.10
2023-05-09T06:26:33.881Z,33.25
2023-05-09T06:29:35.468Z,33.66
2023-05-09T06:32:36.874Z,32.39
2023-05-09T06:35:39.187Z,31.92
2023-05-09T06:38:40.522Z,31.98
2023-05-09T06:41:42.168Z,31.26
2023-05-09T06:44:43.582Z,31.13
2023-05-09T06:47:45.242Z,31.19
2023-05-09T06:50:48.293Z,30.96
2023-05-09T06:53:50.282Z,31.33
2023-05-09T06:56:51.816Z,32.00
2023-05-09T06:59:53.165Z,31.00
2023-05-09T07:02:55.257Z,30.46
2023-05-09T07:05:58.381Z,30.34
2023-05-09T07:09:03.401Z,30.55
2023-05-09T07:12:05.661Z,30.92
2023-05-09T07:15:08.411Z,30.29
2023-05-09T07:18:10.012Z,29.72
2023-05-09T07:21:12.518Z,30.27
2023-05-09T07:24:14.099Z,28.85
2023-05-09T07:27:15.554Z,28.79
2023-05-09T07:30:17.251Z,28.25
2023-05-09T07:33:19.056Z,29.16
2023-05-09T07:36:21.350Z,28.01
2023-05-09T07:39:22.831Z,27.61
2023-05-09T07:42:24.441Z,27.59
2023-05-09T07:45:25.917Z,27.43
2023-05-09T07:48:27.539Z,27.03
2023-05-09T07:51:29.703Z,26.86
2023-05-09T07:54:31.536Z,26.27
2023-05-09T07:57:33.009Z,26.54
2023-05-09T08:00:34.596Z,25.73
2023-05-09T08:03:36.187Z,26.05
2023-05-09T08:06:38.559Z,25.58
2023-05-09T08:09:39.995Z,24.85
2023-05-09T08:12:41.783Z,24.05
2023-05-09T08:15:43.698Z,23.74
2023-05-09T08:18:45.876Z,24.59
2023-05-09T08:21:48.366Z,23.85
2023-05-09T08:24:50.210Z,23.64
2023-05-09T08:27:53.043Z,23.86
2023-05-09T08:30:56.350Z,23.70
2023-05-09T08:33:58.325Z,24.06
2023-05-09T08:37:00.574Z,23.29
2023-05-09T08:40:07.040Z,22.80
2023-05-09T08:43:08.891Z,23.65
2023-05-09T08:46:13.173Z,22.93
2023-05-09T08:49:15.696Z,22.65
2023-05-09T08:52:18.564Z,21.88
2023-05-09T08:55:20.491Z,22.48
2023-05-09T08:58:22.418Z,22.39
2023-05-09T09:01:26.190Z,21.69
2023-05-09T09:04:27.990Z,23.14
2023-05-09T09:07:33.298Z,22.24
2023-05-09T09:10:35.198Z,21.80
2023-05-09T09:13:40.290Z,22.35
2023-05-09T09:16:44.724Z,21.36
2023-05-09T09:19:49.522Z,21.84
2023-05-09T09:22:55.234Z,22.49
2023-05-09T09:26:01.254Z,22.24
2023-05-09T09:29:03.330Z,22.74
2023-05-09T09:32:06.696Z,22.56
2023-05-09T09:35:10.342Z,22.33
2023-05-09T09:38:15.018Z,22.51
2023-05-09T09:41:16.729Z,22.30
2023-05-09T09:44:19.282Z,22.74
2023-05-09T09:47:20.975Z,23.14
2023-05-09T09:50:24.076Z,22.34
2023-05-09T09:53:29.732Z,21.92
2023-05-09T09:56:41.947Z,22.10
2023-05-09T09:59:58.373Z,21.55
2023-05-09T10:03:00.667Z,21.00
2023-05-09T10:06:02.266Z,21.99
2023-05-09T10:09:04.639Z,20.77
2023-05-09T10:12:07.990Z,21.14
2023-05-09T10:15:11.888Z,20.98
2023-05-09T10:18:19.255Z,20.78
2023-05-09T10:21:20.870Z,19.62
2023-05-09T10:24:28.314Z,20.99
2023-05-09T10:27:33.993Z,21.14
2023-05-09T10:30:37.722Z,20.59
2023-05-09T10:33:46.047Z,21.01
2023-05-09T10:36:48.695Z,20.85
2023-05-09T10:39:53.037Z,21.29
2023-05-09T10:42:54.672Z,20.97
2023-05-09T10:45:56.330Z,20.68
2023-05-09T10:48:58.473Z,19.96
2023-05-09T10:52:00.082Z,19.92
2023-05-09T10:55:03.874Z,18.61
2023-05-09T10:58:23.894Z,19.75
2023-05-09T11:01:30.365Z,20.30
2023-05-09T11:04:32.611Z,20.39
2023-05-09T11:07:34.106Z,19.68
2023-05-09T11:10:42.474Z,19.71
2023-05-09T11:13:46.088Z,20.84
2023-05-09T11:16:57.498Z,21.16
2023-05-09T11:20:05.296Z,20.90
2023-05-09T11:23:11.116Z,20.71
2023-05-09T11:26:15.553Z,19.87
2023-05-09T11:29:17.908Z,19.17
2023-05-09T11:32:20.348Z,20.05
2023-05-09T11:35:23.175Z,20.42
2023-05-09T11:38:25.063Z,20.47
2023-05-09T11:41:27.559Z,20.40
2023-05-09T11:44:32.692Z,20.41
2023-05-09T11:47:36.523Z,21.14
2023-05-09T11:50:38.039Z,21.06
2023-05-09T11:53:45.955Z,20.97
2023-05-09T11:56:48.543Z,20.80
2023-05-09T11:59:50.378Z,20.76
2023-05-09T12:02:52.726Z,21.17
2023-05-09T12:05:54.957Z,21.75
2023-05-09T12:08:56.853Z,21.77
2023-05-09T12:12:00.451Z,21.54
2023-05-09T12:15:04.231Z,21.83
2023-05-09T12:18:07.811Z,20.69
2023-05-09T12:21:09.485Z,21.04
2023-05-09T12:24:11.066Z,20.89
2023-05-09T12:27:13.529Z,21.18
2023-05-09T12:30:15.535Z,21.97
2023-05-09T12:33:17.895Z,21.00
2023-05-09T12:36:19.472Z,21.68
2023-05-09T12:39:22.247Z,21.75
2023-05-09T12:42:27.114Z,21.28
2023-05-09T12:45:28.532Z,22.30
2023-05-09T12:48:34.784Z,21.76
2023-05-09T12:51:36.792Z,22.06
2023-05-09T12:54:38.263Z,21.50
2023-05-09T12:57:41.263Z,22.12
2023-05-09T13:00:43.131Z,22.37
2023-05-09T13:03:44.661Z,22.89
2023-05-09T13:06:51.233Z,22.99
2023-05-09T13:09:56.560Z,22.75
2023-05-09T13:12:58.841Z,22.62
2023-05-09T13:16:00.403Z,22.51
2023-05-09T13:19:01.956Z,22.52
2023-05-09T13:22:03.491Z,22.49
2023-05-09T13:25:05.894Z,22.51
2023-05-09T13:28:08.446Z,23.14
2023-05-09T13:31:10.214Z,22.84
2023-05-09T13:34:11.702Z,23.20
2023-05-09T13:37:13.212Z,22.79
2023-05-09T13:40:14.806Z,23.03
2023-05-09T13:43:17.402Z,23.35
2023-05-09T13:46:18.928Z,23.44
2023-05-09T13:49:20.933Z,22.89
2023-05-09T13:52:23.514Z,22.95
2023-05-09T13:55:25.717Z,23.77
2023-05-09T13:58:28.515Z,23.95
2023-05-09T14:01:30.340Z,23.65
2023-05-09T14:04:32.213Z,23.17
2023-05-09T14:07:33.846Z,22.58
2023-05-09T14:10:35.364Z,23.00
2023-05-09T14:13:37.733Z,24.41
2023-05-09T14:16:39.907Z,23.47
2023-05-09T14:19:41.584Z,22.46
2023-05-09T14:22:43.123Z,23.59
2023-05-09T14:25:44.670Z,23.73
2023-05-09T14:28:46.803Z,24.20
2023-05-09T14:31:48.316Z,24.03
2023-05-09T14:34:50.157Z,23.05
2023-05-09T14:37:51.560Z,23.54
2023-05-09T14:40:53.346Z,23.70
2023-05-09T14:43:55.497Z,23.77
2023-05-09T14:46:56.974Z,24.18
2023-05-09T14:49:58.400Z,23.80
2023-05-09T14:53:00.481Z,24.11
2023-05-09T14:56:02.432Z,24.33
2023-05-09T14:59:04.682Z,23.92
2023-05-09T15:02:06.677Z,24.17
2023-05-09T15:05:09.250Z,24.68
2023-05-09T15:08:10.751Z,24.42
2023-05-09T15:11:12.148Z,24.67
2023-05-09T15:14:14.457Z,23.54
2023-05-09T15:17:15.870Z,23.21
2023-05-09T15:20:18.792Z,23.22
2023-05-09T15:23:20.534Z,24.27
2023-05-09T15:26:21.953Z,24.36
2023-05-09T15:29:24.031Z,24.47
2023-05-09T15:32:26.255Z,24.80
2023-05-09T15:35:27.673Z,24.41
2023-05-09T15:38:29.479Z,24.63
2023-05-09T15:41:31.535Z,25.37
2023-05-09T15:44:33.828Z,24.69
2023-05-09T15:47:35.401Z,24.87
2023-05-09T15:50:37.343Z,25.07
2023-05-09T15:53:38.761Z,24.89
2023-05-09T15:56:40.418Z,24.68
2023-05-09T15:59:42.422Z,24.25
2023-05-09T16:02:44.228Z,24.95
2023-05-09T16:05:45.983Z,24.49
2023-05-09T16:08:47.493Z,24.96
2023-05-09T16:11:49.048Z,25.53
2023-05-09T16:14:51.163Z,25.87
2023-05-09T16:17:54.253Z,25.86
2023-05-09T16:20:55.966Z,26.21
2023-05-09T16:23:57.580Z,25.58
2023-05-09T16:26:59.213Z,26.01
2023-05-09T16:30:01.275Z,26.17
2023-05-09T16:33:02.976Z,26.38
2023-05-09T16:36:05.197Z,26.51
2023-05-09T16:39:06.984Z,26.53
2023-05-09T16:42:09.116Z,26.62
2023-05-09T16:45:11.845Z,27.10
2023-05-09T16:48:13.330Z,26.92
2023-05-09T16:51:14.865Z,26.31
2023-05-09T16:54:16.608Z,26.77
2023-05-09T16:57:18.311Z,27.43
2023-05-09T17:00:21.969Z,26.92
2023-05-09T17:03:23.495Z,26.96
2023-05-09T17:06:25.646Z,27.62
2023-05-09T17:09:27.036Z,27.35
2023-05-09T17:12:28.570Z,27.77
2023-05-09T17:15:30.690Z,27.84
2023-05-09T17:18:37.611Z,27.75
2023-05-09T17:21:40.819Z,28.00
2023-05-09T17:24:42.203Z,28.54
2023-05-09T17:27:43.777Z,28.47
2023-05-09T17:30:45.952Z,28.58
2023-05-09T17:33:47.654Z,28.91
2023-05-09T17:36:49.328Z,29.13
2023-05-09T17:39:51.094Z,29.28
2023-05-09T17:42:52.781Z,29.32
2023-05-09T17:45:55.082Z,29.92
2023-05-09T17:48:57.056Z,29.59
2023-05-09T17:51:59.244Z,30.30
2023-05-09T17:55:00.979Z,29.94
2023-05-09T17:58:02.695Z,30.10
2023-05-09T18:01:05.008Z,30.27
2023-05-09T18:04:06.756Z,30.52
2023-05-09T18:07:09.954Z,30.79
2023-05-09T18:10:12.074Z,30.87
2023-05-09T18:13:13.532Z,30.92
2023-05-09T18:16:15.532Z,30.77
2023-05-09T18:19:17.067Z,30.75
2023-05-09T18:22:18.628Z,31.36
2023-05-09T18:25:20.118Z,31.71
2023-05-09T18:28:24.388Z,31.69
2023-05-09T18:31:26.933Z,31.77
2023-05-09T18:34:28.377Z,31.74
2023-05-09T18:37:30.137Z,31.54
2023-05-09T18:40:31.824Z,32.21
2023-05-09T18:43:33.278Z,32.64
2023-05-09T18:46:35.375Z,32.53
2023-05-09T18:49:38.069Z,32.39
2023-05-09T18:52:39.931Z,32.52
2023-05-09T18:55:42.009Z,32.63
2023-05-09T18:58:43.911Z,32.55
2023-05-09T19:01:45.992Z,32.46
2023-05-09T19:04:49.635Z,32.66
2023-05-09T19:07:51.879Z,31.96
2023-05-09T19:10:55.064Z,31.95
2023-05-09T19:13:56.558Z,32.40
2023-05-09T19:16:58.778Z,32.96
2023-05-09T19:20:01.651Z,32.01
2023-05-09T19:23:03.668Z,32.67
2023-05-09T19:26:05.137Z,32.66
2023-05-09T19:29:07.360Z,32.81
2023-05-09T19:32:09.571Z,33.11
2023-05-09T19:35:10.926Z,33.53
2023-05-09T19:38:12.343Z,32.35
2023-05-09T19:41:13.778Z,33.58
2023-05-09T19:44:15.063Z,33.85
2023-05-09T19:47:17.185Z,33.46
2023-05-09T19:50:18.946Z,33.09
2023-05-09T19:53:20.435Z,32.95
2023-05-09T19:56:22.441Z,33.37
2023-05-09T19:59:23.882Z,33.09
2023-05-09T20:02:25.972Z,33.13
2023-05-09T20:05:27.476Z,32.70
2023-05-09T20:08:29.255Z,33.48
2023-05-09T20:11:30.694Z,33.42
2023-05-09T20:14:32.081Z,33.55
2023-05-09T20:17:34.101Z,33.44
2023-05-09T20:20:35.590Z,34.03
2023-05-09T20:23:37.388Z,34.32
2023-05-09T20:26:38.977Z,34.03
2023-05-09T20:29:40.434Z,34.42
2023-05-09T20:32:42.827Z,34.40
2023-05-09T20:35:44.218Z,34.92
2023-05-09T20:38:45.670Z,34.93
2023-05-09T20:41:48.187Z,34.89
2023-05-09T20:44:50.747Z,35.55
2023-05-09T20:47:52.892Z,35.82
2023-05-09T20:50:54.227Z,35.29
2023-05-09T20:53:55.649Z,35.64
2023-05-09T20:56:57.100Z,35.71
2023-05-09T20:59:58.464Z,35.67
2023-05-09T21:03:00.576Z,36.54
2023-05-09T21:06:01.964Z,35.93
2023-05-09T21:09:04.199Z,35.78
2023-05-09T21:12:06.242Z,36.76
2023-05-09T21:15:08.541Z,36.82
2023-05-09T21:18:10.777Z,36.65
2023-05-09T21:21:12.188Z,37.31
2023-05-09T21:24:13.575Z,37.37
2023-05-09T21:27:14.850Z,36.75
2023-05-09T21:30:16.826Z,37.08
2023-05-09T21:33:19.100Z,37.85
2023-05-09T21:36:20.553Z,37.41
2023-05-09T21:39:21.862Z,37.64
2023-05-09T21:42:23.397Z,37.64
2023-05-09T21:45:24.707Z,37.72
2023-05-09T21:48:26.801Z,38.18
2023-05-09T21:51:28.469Z,37.88
2023-05-09T21:54:29.961Z,38.09
2023-05-09T21:57:31.420Z,38.59
2023-05-09T22:00:32.768Z,38.80
2023-05-09T22:03:35.112Z,39.07
2023-05-09T22:06:36.513Z,38.99
2023-05-09T22:09:37.887Z,39.39
2023-05-09T22:12:39.369Z,39.93
2023-05-09T22:15:41.895Z,39.54
2023-05-09T22:18:43.970Z,39.79
2023-05-09T22:21:45.241Z,39.65
2023-05-09T22:24:46.684Z,40.07
2023-05-09T22:27:47.934Z,40.04
2023-05-09T22:30:49.386Z,40.84
2023-05-09T22:33:51.593Z,40.57
2023-05-09T22:36:54.201Z,41.01
2023-05-09T22:39:55.664Z,40.91
2023-05-09T22:42:57.126Z,41.13
2023-05-09T22:45:58.607Z,41.25
2023-05-09T22:49:00.568Z,41.34
2023-05-09T22:52:02.009Z,41.26
2023-05-09T22:55:03.803Z,41.57
2023-05-09T22:58:05.801Z,41.79
2023-05-09T23:01:07.251Z,42.06
2023-05-09T23:04:09.267Z,42.33
2023-05-09T23:07:10.824Z,42.39
2023-05-09T23:10:12.111Z,42.46
2023-05-09T23:13:13.611Z,42.68
2023-05-09T23:16:15.503Z,42.78
2023-05-09T23:19:18.869Z,43.31
2023-05-09T23:22:20.286Z,43.15
2023-05-09T23:25:21.750Z,43.50
2023-05-09T23:28:24.549Z,43.09
2023-05-09T23:31:26.022Z,43.45
2023-05-09T23:34:28.745Z,43.45
2023-05-09T23:37:30.213Z,43.78
2023-05-09T23:40:31.498Z,43.88
2023-05-09T23:43:33.457Z,43.86
2023-05-09T23:46:34.842Z,43.90
2023-05-09T23:49:36.927Z,44.12
2023-05-09T23:52:38.351Z,44.22
2023-05-09T23:55:39.595Z,44.51
2023-05-09T23:58:42.056Z,44.18
